sensor_id;sensor_type;location;lat;lon;timestamp;P1;durP1;ratioP1;P2;durP2;ratioP2
30370;SDS011;17164;48.590;11.410;2023-08-12T00:00:08;4.43;;;2.50;;
30370;SDS011;17164;48.590;11.410;2023-08-12T00:02:41;7.10;;;2.60;;
30370;SDS011;17164;48.590;11.410;2023-08-12T00:05:07;4.70;;;2.87;;
30370;SDS011;17164;48.590;11.410;2023-08-12T00:07:33;4.30;;;2.80;;
30370;SDS011;17164;48.590;11.410;2023-08-12T00:10:02;4.23;;;2.63;;
30370;SDS011;17164;48.590;11.410;2023-08-12T00:12:30;4.87;;;2.43;;
30370;SDS011;17164;48.590;11.410;2023-08-12T00:14:57;5.63;;;2.63;;
30370;SDS011;17164;48.590;11.410;2023-08-12T00:17:23;6.13;;;2.20;;
30370;SDS011;17164;48.590;11.410;2023-08-12T00:19:48;3.70;;;2.50;;
30370;SDS011;17164;48.590;11.410;2023-08-12T00:22:14;5.63;;;2.23;;
30370;SDS011;17164;48.590;11.410;2023-08-12T00:24:40;3.77;;;2.17;;
30370;SDS011;17164;48.590;11.410;2023-08-12T00:27:06;3.93;;;2.07;;
30370;SDS011;17164;48.590;11.410;2023-08-12T00:29:32;3.57;;;1.87;;
30370;SDS011;17164;48.590;11.410;2023-08-12T00:31:57;2.70;;;1.90;;
30370;SDS011;17164;48.590;11.410;2023-08-12T00:34:23;3.53;;;2.10;;
30370;SDS011;17164;48.590;11.410;2023-08-12T00:36:49;3.47;;;2.20;;
30370;SDS011;17164;48.590;11.410;2023-08-12T00:39:14;3.77;;;2.10;;
30370;SDS011;17164;48.590;11.410;2023-08-12T00:41:40;4.77;;;2.30;;
30370;SDS011;17164;48.590;11.410;2023-08-12T00:44:06;4.67;;;2.30;;
30370;SDS011;17164;48.590;11.410;2023-08-12T00:46:31;4.03;;;2.10;;
30370;SDS011;17164;48.590;11.410;2023-08-12T00:48:58;3.70;;;2.47;;
30370;SDS011;17164;48.590;11.410;2023-08-12T00:51:24;4.77;;;2.60;;
30370;SDS011;17164;48.590;11.410;2023-08-12T00:53:50;7.13;;;2.20;;
30370;SDS011;17164;48.590;11.410;2023-08-12T00:56:16;3.53;;;2.20;;
30370;SDS011;17164;48.590;11.410;2023-08-12T00:58:42;3.50;;;2.10;;
30370;SDS011;17164;48.590;11.410;2023-08-12T01:01:08;7.20;;;2.87;;
30370;SDS011;17164;48.590;11.410;2023-08-12T01:03:35;3.53;;;2.50;;
30370;SDS011;17164;48.590;11.410;2023-08-12T01:06:02;7.20;;;2.73;;
30370;SDS011;17164;48.590;11.410;2023-08-12T01:08:28;7.70;;;2.77;;
30370;SDS011;17164;48.590;11.410;2023-08-12T01:11:03;5.47;;;3.20;;
30370;SDS011;17164;48.590;11.410;2023-08-12T01:13:46;4.70;;;2.50;;
30370;SDS011;17164;48.590;11.410;2023-08-12T01:16:22;3.80;;;2.40;;
30370;SDS011;17164;48.590;11.410;2023-08-12T01:18:49;4.80;;;2.43;;
30370;SDS011;17164;48.590;11.410;2023-08-12T01:21:16;5.53;;;2.90;;
30370;SDS011;17164;48.590;11.410;2023-08-12T01:23:42;3.10;;;2.50;;
30370;SDS011;17164;48.590;11.410;2023-08-12T01:26:08;3.90;;;2.43;;
30370;SDS011;17164;48.590;11.410;2023-08-12T01:28:34;6.63;;;2.93;;
30370;SDS011;17164;48.590;11.410;2023-08-12T01:31:04;5.63;;;2.63;;
30370;SDS011;17164;48.590;11.410;2023-08-12T01:34:25;4.83;;;2.80;;
30370;SDS011;17164;48.590;11.410;2023-08-12T01:36:37;6.77;;;3.00;;
30370;SDS011;17164;48.590;11.410;2023-08-12T01:39:05;7.63;;;3.63;;
30370;SDS011;17164;48.590;11.410;2023-08-12T01:41:33;3.77;;;2.70;;
30370;SDS011;17164;48.590;11.410;2023-08-12T01:44:00;6.07;;;2.73;;
30370;SDS011;17164;48.590;11.410;2023-08-12T01:46:27;3.80;;;2.43;;
30370;SDS011;17164;48.590;11.410;2023-08-12T01:48:53;4.17;;;2.70;;
30370;SDS011;17164;48.590;11.410;2023-08-12T01:51:18;5.87;;;2.73;;
30370;SDS011;17164;48.590;11.410;2023-08-12T01:53:44;5.00;;;2.83;;
30370;SDS011;17164;48.590;11.410;2023-08-12T01:56:10;3.80;;;2.27;;
30370;SDS011;17164;48.590;11.410;2023-08-12T01:58:35;4.13;;;2.40;;
30370;SDS011;17164;48.590;11.410;2023-08-12T02:01:01;5.17;;;2.67;;
30370;SDS011;17164;48.590;11.410;2023-08-12T02:03:26;4.23;;;2.27;;
30370;SDS011;17164;48.590;11.410;2023-08-12T02:05:52;5.97;;;2.70;;
30370;SDS011;17164;48.590;11.410;2023-08-12T02:08:18;5.40;;;2.60;;
30370;SDS011;17164;48.590;11.410;2023-08-12T02:10:43;4.77;;;3.00;;
30370;SDS011;17164;48.590;11.410;2023-08-12T02:13:09;4.90;;;2.83;;
30370;SDS011;17164;48.590;11.410;2023-08-12T02:15:34;4.43;;;2.43;;
30370;SDS011;17164;48.590;11.410;2023-08-12T02:18:00;3.30;;;2.20;;
30370;SDS011;17164;48.590;11.410;2023-08-12T02:20:26;4.73;;;2.40;;
30370;SDS011;17164;48.590;11.410;2023-08-12T02:22:52;3.80;;;2.87;;
30370;SDS011;17164;48.590;11.410;2023-08-12T02:25:18;4.93;;;2.53;;
30370;SDS011;17164;48.590;11.410;2023-08-12T02:27:43;4.50;;;2.80;;
30370;SDS011;17164;48.590;11.410;2023-08-12T02:30:09;5.43;;;2.53;;
30370;SDS011;17164;48.590;11.410;2023-08-12T02:32:35;7.33;;;2.80;;
30370;SDS011;17164;48.590;11.410;2023-08-12T02:35:01;4.53;;;3.00;;
30370;SDS011;17164;48.590;11.410;2023-08-12T02:37:26;4.73;;;2.93;;
30370;SDS011;17164;48.590;11.410;2023-08-12T02:39:52;5.90;;;2.67;;
30370;SDS011;17164;48.590;11.410;2023-08-12T02:42:18;5.67;;;2.90;;
30370;SDS011;17164;48.590;11.410;2023-08-12T02:44:43;4.83;;;2.63;;
30370;SDS011;17164;48.590;11.410;2023-08-12T02:47:09;4.53;;;3.00;;
30370;SDS011;17164;48.590;11.410;2023-08-12T02:49:34;4.43;;;2.80;;
30370;SDS011;17164;48.590;11.410;2023-08-12T02:52:00;3.50;;;2.37;;
30370;SDS011;17164;48.590;11.410;2023-08-12T02:54:25;5.13;;;2.80;;
30370;SDS011;17164;48.590;11.410;2023-08-12T02:56:51;4.27;;;2.83;;
30370;SDS011;17164;48.590;11.410;2023-08-12T02:59:17;4.00;;;2.53;;
30370;SDS011;17164;48.590;11.410;2023-08-12T03:01:42;6.00;;;3.43;;
30370;SDS011;17164;48.590;11.410;2023-08-12T03:04:08;4.93;;;2.93;;
30370;SDS011;17164;48.590;11.410;2023-08-12T03:06:34;5.40;;;3.17;;
30370;SDS011;17164;48.590;11.410;2023-08-12T03:08:59;5.10;;;2.97;;
30370;SDS011;17164;48.590;11.410;2023-08-12T03:11:25;4.70;;;2.77;;
30370;SDS011;17164;48.590;11.410;2023-08-12T03:13:50;4.63;;;3.07;;
30370;SDS011;17164;48.590;11.410;2023-08-12T03:16:16;5.20;;;2.90;;
30370;SDS011;17164;48.590;11.410;2023-08-12T03:18:41;5.77;;;3.27;;
30370;SDS011;17164;48.590;11.410;2023-08-12T03:21:07;5.07;;;3.00;;
30370;SDS011;17164;48.590;11.410;2023-08-12T03:23:37;4.50;;;2.80;;
30370;SDS011;17164;48.590;11.410;2023-08-12T03:26:03;4.73;;;2.90;;
30370;SDS011;17164;48.590;11.410;2023-08-12T03:28:29;5.47;;;3.07;;
30370;SDS011;17164;48.590;11.410;2023-08-12T03:30:55;4.77;;;3.00;;
30370;SDS011;17164;48.590;11.410;2023-08-12T03:33:21;5.07;;;3.10;;
30370;SDS011;17164;48.590;11.410;2023-08-12T03:35:47;6.30;;;3.20;;
30370;SDS011;17164;48.590;11.410;2023-08-12T03:38:13;4.53;;;3.13;;
30370;SDS011;17164;48.590;11.410;2023-08-12T03:40:39;4.67;;;3.00;;
30370;SDS011;17164;48.590;11.410;2023-08-12T03:43:06;5.47;;;3.30;;
30370;SDS011;17164;48.590;11.410;2023-08-12T03:45:32;3.70;;;2.90;;
30370;SDS011;17164;48.590;11.410;2023-08-12T03:48:04;4.97;;;3.20;;
30370;SDS011;17164;48.590;11.410;2023-08-12T03:50:32;4.50;;;2.90;;
30370;SDS011;17164;48.590;11.410;2023-08-12T03:52:59;4.03;;;2.93;;
30370;SDS011;17164;48.590;11.410;2023-08-12T03:55:25;4.63;;;2.70;;
30370;SDS011;17164;48.590;11.410;2023-08-12T03:57:50;3.90;;;2.80;;
30370;SDS011;17164;48.590;11.410;2023-08-12T04:00:16;4.67;;;2.90;;
30370;SDS011;17164;48.590;11.410;2023-08-12T04:02:42;4.33;;;2.27;;
30370;SDS011;17164;48.590;11.410;2023-08-12T04:05:08;4.97;;;3.37;;
30370;SDS011;17164;48.590;11.410;2023-08-12T04:07:35;5.00;;;3.00;;
30370;SDS011;17164;48.590;11.410;2023-08-12T04:10:01;6.93;;;2.87;;
30370;SDS011;17164;48.590;11.410;2023-08-12T04:12:27;4.83;;;3.03;;
30370;SDS011;17164;48.590;11.410;2023-08-12T04:14:52;6.33;;;3.53;;
30370;SDS011;17164;48.590;11.410;2023-08-12T04:17:18;6.60;;;3.23;;
30370;SDS011;17164;48.590;11.410;2023-08-12T04:19:44;4.47;;;3.20;;
30370;SDS011;17164;48.590;11.410;2023-08-12T04:22:09;4.87;;;3.23;;
30370;SDS011;17164;48.590;11.410;2023-08-12T04:24:35;7.23;;;3.43;;
30370;SDS011;17164;48.590;11.410;2023-08-12T04:27:00;5.63;;;3.70;;
30370;SDS011;17164;48.590;11.410;2023-08-12T04:29:26;7.10;;;3.20;;
30370;SDS011;17164;48.590;11.410;2023-08-12T04:31:52;6.10;;;3.33;;
30370;SDS011;17164;48.590;11.410;2023-08-12T04:34:18;6.37;;;3.70;;
30370;SDS011;17164;48.590;11.410;2023-08-12T04:36:43;7.53;;;3.40;;
30370;SDS011;17164;48.590;11.410;2023-08-12T04:39:09;9.47;;;2.73;;
30370;SDS011;17164;48.590;11.410;2023-08-12T04:41:35;3.50;;;2.50;;
30370;SDS011;17164;48.590;11.410;2023-08-12T04:44:03;5.43;;;2.50;;
30370;SDS011;17164;48.590;11.410;2023-08-12T04:46:29;3.70;;;2.40;;
30370;SDS011;17164;48.590;11.410;2023-08-12T04:48:55;4.97;;;2.27;;
30370;SDS011;17164;48.590;11.410;2023-08-12T04:51:21;5.53;;;2.57;;
30370;SDS011;17164;48.590;11.410;2023-08-12T04:53:47;4.37;;;2.77;;
30370;SDS011;17164;48.590;11.410;2023-08-12T04:56:12;8.30;;;2.73;;
30370;SDS011;17164;48.590;11.410;2023-08-12T04:58:38;4.60;;;3.00;;
30370;SDS011;17164;48.590;11.410;2023-08-12T05:01:04;4.53;;;2.80;;
30370;SDS011;17164;48.590;11.410;2023-08-12T05:03:29;4.83;;;3.10;;
30370;SDS011;17164;48.590;11.410;2023-08-12T05:05:55;5.77;;;2.83;;
30370;SDS011;17164;48.590;11.410;2023-08-12T05:08:20;4.90;;;2.53;;
30370;SDS011;17164;48.590;11.410;2023-08-12T05:10:47;3.90;;;3.00;;
30370;SDS011;17164;48.590;11.410;2023-08-12T05:13:13;6.43;;;3.17;;
30370;SDS011;17164;48.590;11.410;2023-08-12T05:15:39;4.33;;;3.13;;
30370;SDS011;17164;48.590;11.410;2023-08-12T05:18:05;5.00;;;3.10;;
30370;SDS011;17164;48.590;11.410;2023-08-12T05:20:31;5.83;;;3.10;;
30370;SDS011;17164;48.590;11.410;2023-08-12T05:22:56;5.23;;;3.00;;
30370;SDS011;17164;48.590;11.410;2023-08-12T05:25:22;5.40;;;3.27;;
30370;SDS011;17164;48.590;11.410;2023-08-12T05:27:48;5.23;;;3.20;;
30370;SDS011;17164;48.590;11.410;2023-08-12T05:30:14;4.43;;;3.20;;
30370;SDS011;17164;48.590;11.410;2023-08-12T05:32:40;6.33;;;3.37;;
30370;SDS011;17164;48.590;11.410;2023-08-12T05:35:05;5.20;;;3.67;;
30370;SDS011;17164;48.590;11.410;2023-08-12T05:37:31;3.87;;;3.37;;
30370;SDS011;17164;48.590;11.410;2023-08-12T05:39:57;4.67;;;3.43;;
30370;SDS011;17164;48.590;11.410;2023-08-12T05:42:23;6.03;;;3.70;;
30370;SDS011;17164;48.590;11.410;2023-08-12T05:44:48;7.83;;;3.63;;
30370;SDS011;17164;48.590;11.410;2023-08-12T05:47:14;5.13;;;3.43;;
30370;SDS011;17164;48.590;11.410;2023-08-12T05:49:39;4.53;;;3.07;;
30370;SDS011;17164;48.590;11.410;2023-08-12T05:52:05;7.17;;;3.43;;
30370;SDS011;17164;48.590;11.410;2023-08-12T05:54:31;6.83;;;3.83;;
30370;SDS011;17164;48.590;11.410;2023-08-12T05:56:56;6.73;;;3.93;;
30370;SDS011;17164;48.590;11.410;2023-08-12T05:59:22;6.40;;;3.50;;
30370;SDS011;17164;48.590;11.410;2023-08-12T06:01:48;7.60;;;3.30;;
30370;SDS011;17164;48.590;11.410;2023-08-12T06:04:13;4.97;;;3.00;;
30370;SDS011;17164;48.590;11.410;2023-08-12T06:06:39;4.73;;;3.23;;
30370;SDS011;17164;48.590;11.410;2023-08-12T06:09:05;4.33;;;3.40;;
30370;SDS011;17164;48.590;11.410;2023-08-12T06:11:30;5.23;;;3.63;;
30370;SDS011;17164;48.590;11.410;2023-08-12T06:13:56;4.53;;;3.30;;
30370;SDS011;17164;48.590;11.410;2023-08-12T06:16:21;5.03;;;3.43;;
30370;SDS011;17164;48.590;11.410;2023-08-12T06:18:47;4.73;;;3.37;;
30370;SDS011;17164;48.590;11.410;2023-08-12T06:21:13;6.27;;;3.60;;
30370;SDS011;17164;48.590;11.410;2023-08-12T06:23:38;6.50;;;3.80;;
30370;SDS011;17164;48.590;11.410;2023-08-12T06:26:04;5.83;;;3.67;;
30370;SDS011;17164;48.590;11.410;2023-08-12T06:28:29;6.10;;;3.53;;
30370;SDS011;17164;48.590;11.410;2023-08-12T06:30:55;4.77;;;3.50;;
30370;SDS011;17164;48.590;11.410;2023-08-12T06:33:21;6.20;;;3.43;;
30370;SDS011;17164;48.590;11.410;2023-08-12T06:35:46;5.10;;;3.43;;
30370;SDS011;17164;48.590;11.410;2023-08-12T06:38:12;4.67;;;3.67;;
30370;SDS011;17164;48.590;11.410;2023-08-12T06:40:38;5.93;;;3.67;;
30370;SDS011;17164;48.590;11.410;2023-08-12T06:43:04;5.43;;;3.60;;
30370;SDS011;17164;48.590;11.410;2023-08-12T06:45:29;8.00;;;3.50;;
30370;SDS011;17164;48.590;11.410;2023-08-12T06:47:55;5.63;;;3.27;;
30370;SDS011;17164;48.590;11.410;2023-08-12T06:50:21;4.93;;;3.60;;
30370;SDS011;17164;48.590;11.410;2023-08-12T06:52:46;5.13;;;3.40;;
30370;SDS011;17164;48.590;11.410;2023-08-12T06:55:12;5.90;;;3.03;;
30370;SDS011;17164;48.590;11.410;2023-08-12T06:57:37;6.57;;;3.50;;
30370;SDS011;17164;48.590;11.410;2023-08-12T07:00:03;5.93;;;3.20;;
30370;SDS011;17164;48.590;11.410;2023-08-12T07:02:30;5.53;;;2.63;;
30370;SDS011;17164;48.590;11.410;2023-08-12T07:04:55;3.37;;;2.77;;
30370;SDS011;17164;48.590;11.410;2023-08-12T07:07:21;5.03;;;3.60;;
30370;SDS011;17164;48.590;11.410;2023-08-12T07:09:47;5.47;;;3.33;;
30370;SDS011;17164;48.590;11.410;2023-08-12T07:12:13;4.37;;;2.90;;
30370;SDS011;17164;48.590;11.410;2023-08-12T07:14:38;3.77;;;2.93;;
30370;SDS011;17164;48.590;11.410;2023-08-12T07:17:04;5.57;;;3.33;;
30370;SDS011;17164;48.590;11.410;2023-08-12T07:19:30;5.00;;;3.30;;
30370;SDS011;17164;48.590;11.410;2023-08-12T07:21:55;5.47;;;3.00;;
30370;SDS011;17164;48.590;11.410;2023-08-12T07:24:21;5.73;;;3.87;;
30370;SDS011;17164;48.590;11.410;2023-08-12T07:26:47;3.73;;;2.93;;
30370;SDS011;17164;48.590;11.410;2023-08-12T07:29:14;4.83;;;3.20;;
30370;SDS011;17164;48.590;11.410;2023-08-12T07:31:39;4.40;;;3.47;;
30370;SDS011;17164;48.590;11.410;2023-08-12T07:34:05;4.00;;;3.17;;
30370;SDS011;17164;48.590;11.410;2023-08-12T07:36:31;4.47;;;2.83;;
30370;SDS011;17164;48.590;11.410;2023-08-12T07:38:58;4.73;;;2.90;;
30370;SDS011;17164;48.590;11.410;2023-08-12T07:41:23;5.53;;;3.13;;
30370;SDS011;17164;48.590;11.410;2023-08-12T07:43:52;6.70;;;2.87;;
30370;SDS011;17164;48.590;11.410;2023-08-12T07:46:18;4.13;;;3.13;;
30370;SDS011;17164;48.590;11.410;2023-08-12T07:48:43;4.57;;;2.97;;
30370;SDS011;17164;48.590;11.410;2023-08-12T07:51:09;4.20;;;2.83;;
30370;SDS011;17164;48.590;11.410;2023-08-12T07:53:34;3.67;;;2.93;;
30370;SDS011;17164;48.590;11.410;2023-08-12T07:56:00;5.03;;;3.00;;
30370;SDS011;17164;48.590;11.410;2023-08-12T07:58:26;5.90;;;2.87;;
30370;SDS011;17164;48.590;11.410;2023-08-12T08:00:54;4.87;;;2.90;;
30370;SDS011;17164;48.590;11.410;2023-08-12T08:03:20;4.37;;;2.83;;
30370;SDS011;17164;48.590;11.410;2023-08-12T08:05:46;4.60;;;2.63;;
30370;SDS011;17164;48.590;11.410;2023-08-12T08:08:12;6.20;;;2.73;;
30370;SDS011;17164;48.590;11.410;2023-08-12T08:10:38;7.53;;;3.17;;
30370;SDS011;17164;48.590;11.410;2023-08-12T08:13:04;5.83;;;3.40;;
30370;SDS011;17164;48.590;11.410;2023-08-12T08:15:29;4.30;;;2.67;;
30370;SDS011;17164;48.590;11.410;2023-08-12T08:17:55;5.67;;;2.97;;
30370;SDS011;17164;48.590;11.410;2023-08-12T08:20:20;5.50;;;2.93;;
30370;SDS011;17164;48.590;11.410;2023-08-12T08:22:46;5.27;;;2.83;;
30370;SDS011;17164;48.590;11.410;2023-08-12T08:25:12;4.47;;;3.23;;
30370;SDS011;17164;48.590;11.410;2023-08-12T08:27:37;5.10;;;3.53;;
30370;SDS011;17164;48.590;11.410;2023-08-12T08:30:03;3.60;;;3.10;;
30370;SDS011;17164;48.590;11.410;2023-08-12T08:32:31;5.43;;;3.13;;
30370;SDS011;17164;48.590;11.410;2023-08-12T08:34:56;5.03;;;2.60;;
30370;SDS011;17164;48.590;11.410;2023-08-12T08:37:22;7.20;;;3.13;;
30370;SDS011;17164;48.590;11.410;2023-08-12T08:39:47;4.17;;;3.27;;
30370;SDS011;17164;48.590;11.410;2023-08-12T08:42:13;4.70;;;3.27;;
30370;SDS011;17164;48.590;11.410;2023-08-12T08:44:41;5.13;;;3.15;;
30370;SDS011;17164;48.590;11.410;2023-08-12T08:47:08;4.40;;;3.03;;
30370;SDS011;17164;48.590;11.410;2023-08-12T08:49:34;6.63;;;2.83;;
30370;SDS011;17164;48.590;11.410;2023-08-12T08:52:01;4.10;;;3.10;;
30370;SDS011;17164;48.590;11.410;2023-08-12T08:54:27;3.77;;;2.73;;
30370;SDS011;17164;48.590;11.410;2023-08-12T08:56:53;4.63;;;3.23;;
30370;SDS011;17164;48.590;11.410;2023-08-12T08:59:19;5.67;;;3.43;;
30370;SDS011;17164;48.590;11.410;2023-08-12T09:01:46;6.83;;;2.83;;
30370;SDS011;17164;48.590;11.410;2023-08-12T09:04:16;4.23;;;3.10;;
30370;SDS011;17164;48.590;11.410;2023-08-12T09:06:43;4.40;;;3.00;;
30370;SDS011;17164;48.590;11.410;2023-08-12T09:09:10;5.23;;;2.90;;
30370;SDS011;17164;48.590;11.410;2023-08-12T09:11:39;6.33;;;2.97;;
30370;SDS011;17164;48.590;11.410;2023-08-12T09:14:05;4.70;;;3.10;;
30370;SDS011;17164;48.590;11.410;2023-08-12T09:16:31;3.47;;;2.83;;
30370;SDS011;17164;48.590;11.410;2023-08-12T09:18:57;5.10;;;3.43;;
30370;SDS011;17164;48.590;11.410;2023-08-12T09:21:23;3.57;;;2.73;;
30370;SDS011;17164;48.590;11.410;2023-08-12T09:23:49;3.87;;;2.60;;
30370;SDS011;17164;48.590;11.410;2023-08-12T09:26:18;5.07;;;3.10;;
30370;SDS011;17164;48.590;11.410;2023-08-12T09:28:45;4.80;;;2.97;;
30370;SDS011;17164;48.590;11.410;2023-08-12T09:31:32;9.43;;;3.40;;
30370;SDS011;17164;48.590;11.410;2023-08-12T09:33:59;5.17;;;2.90;;
30370;SDS011;17164;48.590;11.410;2023-08-12T09:36:28;4.23;;;3.10;;
30370;SDS011;17164;48.590;11.410;2023-08-12T09:38:55;4.50;;;3.00;;
30370;SDS011;17164;48.590;11.410;2023-08-12T09:41:22;5.37;;;3.27;;
30370;SDS011;17164;48.590;11.410;2023-08-12T09:43:50;4.70;;;3.17;;
30370;SDS011;17164;48.590;11.410;2023-08-12T09:46:17;5.97;;;3.00;;
30370;SDS011;17164;48.590;11.410;2023-08-12T09:48:46;5.50;;;3.00;;
30370;SDS011;17164;48.590;11.410;2023-08-12T09:51:11;4.47;;;3.20;;
30370;SDS011;17164;48.590;11.410;2023-08-12T09:53:37;3.93;;;2.87;;
30370;SDS011;17164;48.590;11.410;2023-08-12T09:56:05;6.43;;;3.30;;
30370;SDS011;17164;48.590;11.410;2023-08-12T09:58:35;6.80;;;3.33;;
30370;SDS011;17164;48.590;11.410;2023-08-12T10:01:02;3.97;;;2.87;;
30370;SDS011;17164;48.590;11.410;2023-08-12T10:03:29;7.20;;;3.37;;
30370;SDS011;17164;48.590;11.410;2023-08-12T10:05:55;4.70;;;3.50;;
30370;SDS011;17164;48.590;11.410;2023-08-12T10:08:22;7.30;;;3.53;;
30370;SDS011;17164;48.590;11.410;2023-08-12T10:10:48;5.83;;;3.93;;
30370;SDS011;17164;48.590;11.410;2023-08-12T10:13:14;4.27;;;3.27;;
30370;SDS011;17164;48.590;11.410;2023-08-12T10:15:41;5.10;;;3.70;;
30370;SDS011;17164;48.590;11.410;2023-08-12T10:18:07;5.03;;;3.10;;
30370;SDS011;17164;48.590;11.410;2023-08-12T10:20:33;5.60;;;2.90;;
30370;SDS011;17164;48.590;11.410;2023-08-12T10:23:01;7.70;;;2.73;;
30370;SDS011;17164;48.590;11.410;2023-08-12T10:25:32;4.00;;;2.83;;
30370;SDS011;17164;48.590;11.410;2023-08-12T10:28:01;3.73;;;3.10;;
30370;SDS011;17164;48.590;11.410;2023-08-12T10:30:30;6.73;;;3.33;;
30370;SDS011;17164;48.590;11.410;2023-08-12T10:32:56;5.03;;;3.07;;
30370;SDS011;17164;48.590;11.410;2023-08-12T10:35:30;4.37;;;2.97;;
30370;SDS011;17164;48.590;11.410;2023-08-12T10:38:10;5.07;;;3.10;;
30370;SDS011;17164;48.590;11.410;2023-08-12T10:40:38;4.30;;;2.90;;
30370;SDS011;17164;48.590;11.410;2023-08-12T10:43:04;5.43;;;3.30;;
30370;SDS011;17164;48.590;11.410;2023-08-12T10:50:49;4.30;;;2.87;;
30370;SDS011;17164;48.590;11.410;2023-08-12T10:55:54;3.67;;;2.93;;
30370;SDS011;17164;48.590;11.410;2023-08-12T10:58:34;4.77;;;2.87;;
30370;SDS011;17164;48.590;11.410;2023-08-12T11:01:08;6.43;;;2.77;;
30370;SDS011;17164;48.590;11.410;2023-08-12T11:03:38;4.50;;;2.97;;
30370;SDS011;17164;48.590;11.410;2023-08-12T11:06:09;6.37;;;3.07;;
30370;SDS011;17164;48.590;11.410;2023-08-12T11:08:35;4.13;;;3.00;;
30370;SDS011;17164;48.590;11.410;2023-08-12T11:11:01;7.57;;;3.10;;
30370;SDS011;17164;48.590;11.410;2023-08-12T11:13:27;5.77;;;2.90;;
30370;SDS011;17164;48.590;11.410;2023-08-12T11:15:54;5.77;;;2.93;;
30370;SDS011;17164;48.590;11.410;2023-08-12T11:18:32;3.30;;;2.70;;
30370;SDS011;17164;48.590;11.410;2023-08-12T11:20:58;6.03;;;2.77;;
30370;SDS011;17164;48.590;11.410;2023-08-12T11:23:25;5.00;;;2.73;;
30370;SDS011;17164;48.590;11.410;2023-08-12T11:25:50;9.90;;;2.83;;
30370;SDS011;17164;48.590;11.410;2023-08-12T11:28:17;3.60;;;2.60;;
30370;SDS011;17164;48.590;11.410;2023-08-12T11:30:46;5.37;;;2.80;;
30370;SDS011;17164;48.590;11.410;2023-08-12T11:33:12;4.80;;;2.80;;
30370;SDS011;17164;48.590;11.410;2023-08-12T11:35:37;4.73;;;2.83;;
30370;SDS011;17164;48.590;11.410;2023-08-12T11:38:04;5.17;;;2.97;;
30370;SDS011;17164;48.590;11.410;2023-08-12T11:40:31;6.53;;;2.93;;
30370;SDS011;17164;48.590;11.410;2023-08-12T11:42:57;3.50;;;2.63;;
30370;SDS011;17164;48.590;11.410;2023-08-12T11:45:23;3.20;;;2.60;;
30370;SDS011;17164;48.590;11.410;2023-08-12T11:47:50;3.40;;;2.50;;
30370;SDS011;17164;48.590;11.410;2023-08-12T11:50:20;3.67;;;2.43;;
30370;SDS011;17164;48.590;11.410;2023-08-12T11:52:48;3.47;;;2.37;;
30370;SDS011;17164;48.590;11.410;2023-08-12T11:55:14;2.87;;;2.20;;
30370;SDS011;17164;48.590;11.410;2023-08-12T11:57:41;4.70;;;2.23;;
30370;SDS011;17164;48.590;11.410;2023-08-12T12:00:09;4.00;;;2.10;;
30370;SDS011;17164;48.590;11.410;2023-08-12T12:02:45;5.43;;;2.10;;
30370;SDS011;17164;48.590;11.410;2023-08-12T12:05:11;3.10;;;2.27;;
30370;SDS011;17164;48.590;11.410;2023-08-12T12:07:37;3.93;;;2.27;;
30370;SDS011;17164;48.590;11.410;2023-08-12T12:10:06;4.63;;;2.33;;
30370;SDS011;17164;48.590;11.410;2023-08-12T12:12:35;2.87;;;2.10;;
30370;SDS011;17164;48.590;11.410;2023-08-12T12:15:01;7.43;;;2.00;;
30370;SDS011;17164;48.590;11.410;2023-08-12T12:17:28;4.13;;;2.07;;
30370;SDS011;17164;48.590;11.410;2023-08-12T12:19:58;4.03;;;2.00;;
30370;SDS011;17164;48.590;11.410;2023-08-12T12:22:31;3.70;;;2.20;;
30370;SDS011;17164;48.590;11.410;2023-08-12T12:25:04;5.10;;;2.40;;
30370;SDS011;17164;48.590;11.410;2023-08-12T12:27:31;6.63;;;2.10;;
30370;SDS011;17164;48.590;11.410;2023-08-12T12:29:57;4.03;;;2.10;;
30370;SDS011;17164;48.590;11.410;2023-08-12T12:32:22;4.90;;;2.60;;
30370;SDS011;17164;48.590;11.410;2023-08-12T12:34:48;6.80;;;2.30;;
30370;SDS011;17164;48.590;11.410;2023-08-12T12:37:14;3.40;;;2.30;;
30370;SDS011;17164;48.590;11.410;2023-08-12T12:39:40;4.00;;;2.60;;
30370;SDS011;17164;48.590;11.410;2023-08-12T12:42:06;4.13;;;2.43;;
30370;SDS011;17164;48.590;11.410;2023-08-12T12:44:33;4.20;;;2.30;;
30370;SDS011;17164;48.590;11.410;2023-08-12T12:46:58;7.17;;;2.60;;
30370;SDS011;17164;48.590;11.410;2023-08-12T12:49:24;3.17;;;2.30;;
30370;SDS011;17164;48.590;11.410;2023-08-12T12:51:50;9.27;;;2.80;;
30370;SDS011;17164;48.590;11.410;2023-08-12T12:54:15;7.90;;;2.60;;
30370;SDS011;17164;48.590;11.410;2023-08-12T12:56:41;3.40;;;2.57;;
30370;SDS011;17164;48.590;11.410;2023-08-12T12:59:07;4.07;;;2.60;;
30370;SDS011;17164;48.590;11.410;2023-08-12T13:01:33;3.60;;;2.43;;
30370;SDS011;17164;48.590;11.410;2023-08-12T13:03:58;7.23;;;2.50;;
30370;SDS011;17164;48.590;11.410;2023-08-12T13:06:24;3.57;;;2.20;;
30370;SDS011;17164;48.590;11.410;2023-08-12T13:08:50;2.77;;;2.17;;
30370;SDS011;17164;48.590;11.410;2023-08-12T13:11:15;3.70;;;2.50;;
30370;SDS011;17164;48.590;11.410;2023-08-12T13:13:42;2.40;;;2.03;;
30370;SDS011;17164;48.590;11.410;2023-08-12T13:16:07;6.07;;;2.30;;
30370;SDS011;17164;48.590;11.410;2023-08-12T13:18:33;5.40;;;2.23;;
30370;SDS011;17164;48.590;11.410;2023-08-12T13:20:59;4.57;;;2.60;;
30370;SDS011;17164;48.590;11.410;2023-08-12T13:23:25;2.73;;;2.00;;
30370;SDS011;17164;48.590;11.410;2023-08-12T13:25:51;4.03;;;2.20;;
30370;SDS011;17164;48.590;11.410;2023-08-12T13:28:17;3.87;;;2.50;;
30370;SDS011;17164;48.590;11.410;2023-08-12T13:30:43;3.60;;;2.43;;
30370;SDS011;17164;48.590;11.410;2023-08-12T13:33:09;2.97;;;2.07;;
30370;SDS011;17164;48.590;11.410;2023-08-12T13:35:35;2.53;;;2.17;;
30370;SDS011;17164;48.590;11.410;2023-08-12T13:38:01;2.90;;;1.80;;
30370;SDS011;17164;48.590;11.410;2023-08-12T13:40:27;3.17;;;1.93;;
30370;SDS011;17164;48.590;11.410;2023-08-12T13:42:52;2.87;;;1.87;;
30370;SDS011;17164;48.590;11.410;2023-08-12T13:45:18;3.93;;;2.20;;
30370;SDS011;17164;48.590;11.410;2023-08-12T13:47:44;6.13;;;2.17;;
30370;SDS011;17164;48.590;11.410;2023-08-12T13:50:09;3.50;;;2.23;;
30370;SDS011;17164;48.590;11.410;2023-08-12T13:52:35;3.20;;;2.10;;
30370;SDS011;17164;48.590;11.410;2023-08-12T13:55:01;3.37;;;2.07;;
30370;SDS011;17164;48.590;11.410;2023-08-12T13:57:28;4.07;;;2.00;;
30370;SDS011;17164;48.590;11.410;2023-08-12T13:59:54;4.03;;;1.87;;
30370;SDS011;17164;48.590;11.410;2023-08-12T14:02:20;3.00;;;1.90;;
30370;SDS011;17164;48.590;11.410;2023-08-12T14:04:46;3.47;;;1.90;;
30370;SDS011;17164;48.590;11.410;2023-08-12T14:07:11;2.80;;;1.90;;
30370;SDS011;17164;48.590;11.410;2023-08-12T14:09:37;5.77;;;2.23;;
30370;SDS011;17164;48.590;11.410;2023-08-12T14:12:02;3.73;;;1.90;;
30370;SDS011;17164;48.590;11.410;2023-08-12T14:14:28;3.23;;;2.20;;
30370;SDS011;17164;48.590;11.410;2023-08-12T14:16:55;3.27;;;2.00;;
30370;SDS011;17164;48.590;11.410;2023-08-12T14:19:20;3.07;;;2.20;;
30370;SDS011;17164;48.590;11.410;2023-08-12T14:21:46;2.67;;;1.97;;
30370;SDS011;17164;48.590;11.410;2023-08-12T14:24:12;4.07;;;2.37;;
30370;SDS011;17164;48.590;11.410;2023-08-12T14:26:38;4.20;;;2.10;;
30370;SDS011;17164;48.590;11.410;2023-08-12T14:29:04;5.03;;;2.00;;
30370;SDS011;17164;48.590;11.410;2023-08-12T14:31:30;6.30;;;2.20;;
30370;SDS011;17164;48.590;11.410;2023-08-12T14:33:56;4.33;;;2.10;;
30370;SDS011;17164;48.590;11.410;2023-08-12T14:36:21;3.33;;;2.03;;